Terminal Aerodrome Forecast
Issued by NWS

Home | Current Version | Previous Version | Graphics & Text | Print | Product List | Glossary On
Versions: 1 2 3 4 5 6 7 8 9 10 11 12 13 14 15 16 17 18 19
000
FTUS43 KFGF 271700
TAFBJI
TAF
KBJI 271737Z 2718/2818 26007KT P6SM BKN250
     FM272200 26007KT P6SM BKN080
     FM280800 30010KT P6SM BKN030
     FM281100 29007KT P6SM VCSH OVC025
     FM281300 29011G17KT 4SM -RA OVC015
     FM281500 29014G21KT 6SM -SN OVC015=

USA.gov is the U.S. government's official web portal to all federal, state and local government web resources and services.